Time;durP1;ratioP1;P1;durP2;ratioP2;P2;SDS_P1;SDS_P2;PMS_P1;PMS_P2;Temp;Humidity;BMP_temperature;BMP_pressure;BME280_temperature;BME280_humidity;BME280_pressure;Samples;Min_cycle;Max_cycle;Signal;HPM_P1;HPM_P2
2023/06/16 00:02:23;;;;;;;18.95;14.50;;;;;;;21.33;61.33;102044.16;5048864;28;20033;-50
2023/06/16 00:04:49;;;;;;;21.83;14.98;;;;;;;21.28;61.61;102053.94;5047862;28;20036;-48
2023/06/16 00:07:19;;;;;;;18.27;14.73;;;;;;;21.30;61.87;102046.84;5048949;28;20370;-43
2023/06/16 00:09:46;;;;;;;18.75;14.55;;;;;;;21.21;62.13;102052.25;5048558;28;20033;-44
2023/06/16 00:12:12;;;;;;;18.02;13.90;;;;;;;21.17;62.29;102047.00;5048363;28;20040;-45
2023/06/16 00:14:37;;;;;;;17.10;13.50;;;;;;;21.17;62.15;102047.88;5048550;28;20029;-44
2023/06/16 00:17:03;;;;;;;18.55;13.88;;;;;;;21.17;62.04;102044.34;5045915;28;20040;-43
2023/06/16 00:19:29;;;;;;;17.75;14.40;;;;;;;21.09;62.08;102038.22;5049369;28;20120;-46
2023/06/16 00:21:59;;;;;;;20.75;15.02;;;;;;;21.12;62.10;102049.66;5051853;28;20036;-46
2023/06/16 00:24:25;;;;;;;19.67;13.90;;;;;;;21.05;62.03;102047.97;5052447;28;20538;-44
2023/06/16 00:26:50;;;;;;;18.48;13.95;;;;;;;21.03;62.25;102048.03;5051484;28;20052;-47
2023/06/16 00:29:15;;;;;;;19.88;13.63;;;;;;;21.02;62.04;102048.91;5052119;28;20036;-45
2023/06/16 00:31:40;;;;;;;18.75;13.80;;;;;;;20.98;61.86;102047.16;5052302;28;20033;-48
2023/06/16 00:34:06;;;;;;;18.63;14.13;;;;;;;20.99;62.06;102046.28;5050782;28;20044;-44
2023/06/16 00:36:31;;;;;;;17.65;14.45;;;;;;;20.96;62.06;102040.13;5051604;28;20110;-43
2023/06/16 00:38:57;;;;;;;19.92;14.48;;;;;;;20.96;62.03;102037.50;5051632;28;20068;-44
2023/06/16 00:41:22;;;;;;;22.33;14.32;;;;;;;20.93;62.23;102037.50;5052255;28;20120;-45
2023/06/16 00:43:47;;;;;;;16.77;13.63;;;;;;;20.92;62.35;102043.72;5049713;28;20029;-47
2023/06/16 00:46:25;;;;;;;17.52;14.32;;;;;;;20.87;62.47;102041.09;5051578;28;20051;-47
2023/06/16 00:48:50;;;;;;;17.20;14.23;;;;;;;20.85;62.28;102040.25;5051795;28;20079;-49
2023/06/16 00:51:16;;;;;;;17.75;13.43;;;;;;;20.85;62.26;102042.03;5052432;28;20037;-41
2023/06/16 00:53:41;;;;;;;17.08;14.27;;;;;;;20.77;62.28;102030.63;5052160;28;20113;-45
2023/06/16 00:56:07;;;;;;;18.52;13.68;;;;;;;20.73;62.33;102042.16;5051240;28;20037;-45
2023/06/16 00:58:32;;;;;;;19.60;14.45;;;;;;;20.74;62.39;102039.47;5052296;28;20040;-45
2023/06/16 01:00:59;;;;;;;16.20;13.55;;;;;;;20.73;62.11;102034.22;5051864;28;20377;-43
2023/06/16 01:03:26;;;;;;;16.17;13.20;;;;;;;20.66;62.25;102044.00;5050098;28;20033;-47
2023/06/16 01:05:56;;;;;;;18.20;14.02;;;;;;;20.63;62.26;102031.63;5049305;28;20028;-45
2023/06/16 01:08:33;;;;;;;20.05;14.43;;;;;;;20.63;62.48;102038.69;5052391;28;20033;-44
2023/06/16 01:11:05;;;;;;;19.80;13.98;;;;;;;20.61;62.17;102035.22;5051403;28;20029;-45
2023/06/16 01:13:55;;;;;;;20.83;13.18;;;;;;;20.58;62.08;102028.16;5051601;28;20036;-45
2023/06/16 01:16:29;;;;;;;17.25;13.32;;;;;;;20.54;61.90;102026.44;5050861;28;20029;-48
2023/06/16 01:18:55;;;;;;;16.35;13.13;;;;;;;20.49;61.84;102027.38;5050848;28;20064;-47
2023/06/16 01:21:41;;;;;;;17.98;13.40;;;;;;;20.46;61.95;102022.97;5051241;28;20033;-46
2023/06/16 01:24:18;;;;;;;17.85;13.43;;;;;;;20.45;61.92;102020.34;5050546;28;20059;-45
2023/06/16 01:26:49;;;;;;;17.08;13.07;;;;;;;20.43;62.02;102019.50;5050597;28;20125;-46
2023/06/16 01:29:16;;;;;;;17.17;12.55;;;;;;;20.39;61.82;102017.75;5050882;28;20044;-49
2023/06/16 01:31:43;;;;;;;16.08;12.68;;;;;;;20.35;62.02;102021.31;5050810;28;20442;-46
2023/06/16 01:34:11;;;;;;;17.67;13.32;;;;;;;20.31;61.95;102022.22;5051129;28;20029;-45
2023/06/16 01:36:39;;;;;;;17.35;13.15;;;;;;;20.29;61.84;102022.22;5050591;28;20028;-47
2023/06/16 01:39:06;;;;;;;17.98;13.43;;;;;;;20.25;61.72;102020.47;5050350;28;20082;-48
2023/06/16 01:41:33;;;;;;;16.98;13.43;;;;;;;20.22;61.98;102021.38;5051093;28;20037;-48
2023/06/16 01:44:00;;;;;;;18.38;13.73;;;;;;;20.22;61.75;102024.03;5050617;28;20025;-49
2023/06/16 01:46:26;;;;;;;15.90;13.48;;;;;;;20.05;62.37;102017.13;5050533;28;20112;-50
2023/06/16 01:48:52;;;;;;;17.25;13.23;;;;;;;19.97;62.41;102016.28;5050414;28;20121;-46
2023/06/16 01:51:18;;;;;;;17.20;13.43;;;;;;;19.91;62.75;102014.56;5050892;28;20086;-47
2023/06/16 01:53:44;;;;;;;18.00;12.85;;;;;;;19.89;62.88;102015.44;5050732;28;20044;-46
2023/06/16 01:56:12;;;;;;;15.77;12.27;;;;;;;19.88;62.57;102016.38;5049846;28;20029;-44
2023/06/16 01:58:38;;;;;;;14.38;12.32;;;;;;;19.87;62.67;102020.78;5050348;28;20033;-45
2023/06/16 02:01:10;;;;;;;16.15;12.70;;;;;;;19.84;62.74;102015.50;5049919;28;20048;-51
2023/06/16 02:03:46;;;;;;;16.33;13.05;;;;;;;19.82;63.10;102012.00;5050652;28;20053;-46
2023/06/16 02:06:19;;;;;;;16.30;13.20;;;;;;;19.81;63.17;102024.34;5049866;28;20052;-45
2023/06/16 02:08:48;;;;;;;15.13;12.05;;;;;;;19.81;62.76;102019.06;5050576;28;20025;-45
2023/06/16 02:11:14;;;;;;;19.65;12.93;;;;;;;19.74;63.04;102019.97;5050415;28;20029;-44
2023/06/16 02:13:40;;;;;;;15.50;12.70;;;;;;;19.73;63.14;102018.22;5050407;28;20029;-46
2023/06/16 02:16:05;;;;;;;16.38;12.43;;;;;;;19.72;63.27;102016.44;5049357;28;20037;-46
2023/06/16 02:18:32;;;;;;;16.27;13.23;;;;;;;19.71;63.37;102021.75;5050130;28;20491;-48
2023/06/16 02:20:58;;;;;;;17.20;13.27;;;;;;;19.70;63.58;102030.59;5049679;28;20559;-46
2023/06/16 02:23:24;;;;;;;15.27;12.98;;;;;;;19.73;63.16;102014.69;5050478;28;20121;-43
2023/06/16 02:25:49;;;;;;;14.90;12.38;;;;;;;19.69;63.29;102011.19;5031053;28;20033;-45
2023/06/16 02:28:15;;;;;;;16.88;12.77;;;;;;;19.65;63.52;102019.13;5050198;28;20078;-45
2023/06/16 02:30:40;;;;;;;17.13;12.50;;;;;;;19.63;63.71;102010.34;5049944;28;20021;-46
2023/06/16 02:33:05;;;;;;;14.45;12.27;;;;;;;19.62;63.75;102017.41;5049265;28;20099;-49
2023/06/16 02:35:31;;;;;;;17.45;12.88;;;;;;;19.62;63.78;102017.41;5049233;28;20033;-48
2023/06/16 02:37:56;;;;;;;15.13;11.98;;;;;;;19.64;63.74;102022.69;5049259;28;20083;-47
2023/06/16 02:40:22;;;;;;;16.83;12.32;;;;;;;19.59;63.78;102020.06;5049468;28;20033;-48
2023/06/16 02:42:48;;;;;;;16.95;12.68;;;;;;;19.57;63.90;102027.13;5048698;28;20036;-48
2023/06/16 02:45:14;;;;;;;14.55;12.07;;;;;;;19.53;63.84;102020.09;5049280;28;20106;-45
2023/06/16 02:47:40;;;;;;;15.75;11.57;;;;;;;19.55;63.47;102017.44;5048504;28;20415;-44
2023/06/16 02:50:07;;;;;;;15.90;12.20;;;;;;;19.53;63.43;102020.09;5049273;28;20025;-47
2023/06/16 02:52:32;;;;;;;16.55;12.20;;;;;;;19.50;63.32;102012.19;5031988;28;20078;-46
2023/06/16 02:54:58;;;;;;;18.00;12.45;;;;;;;19.51;63.58;102019.22;5047976;28;20403;-45
2023/06/16 02:57:23;;;;;;;13.98;11.50;;;;;;;19.49;64.02;102017.47;5049169;28;20036;-47
2023/06/16 02:59:49;;;;;;;13.73;11.23;;;;;;;19.49;63.83;102010.41;5049105;28;20040;-47
2023/06/16 03:02:14;;;;;;;15.23;11.15;;;;;;;19.49;63.97;102015.72;5049425;28;20033;-45
2023/06/16 03:04:40;;;;;;;14.45;10.85;;;;;;;19.47;63.94;102016.59;5049001;28;20037;-42
2023/06/16 03:07:06;;;;;;;14.48;11.13;;;;;;;19.47;63.98;102021.88;5048156;28;20073;-48
2023/06/16 03:09:32;;;;;;;13.00;10.60;;;;;;;19.48;63.97;102019.22;5049162;28;20108;-49
2023/06/16 03:11:58;;;;;;;13.38;10.63;;;;;;;19.52;63.92;102020.13;5048668;28;20029;-45
2023/06/16 03:14:23;;;;;;;14.25;10.50;;;;;;;19.49;63.79;102020.13;5031895;28;20403;-48
2023/06/16 03:16:50;;;;;;;14.75;10.25;;;;;;;19.32;64.21;102018.41;5048327;28;20040;-47
2023/06/16 03:19:16;;;;;;;13.93;10.50;;;;;;;19.41;64.21;102021.00;5049296;28;20036;-46
2023/06/16 03:21:42;;;;;;;15.05;10.48;;;;;;;19.42;63.91;102022.75;5049480;28;20399;-46
2023/06/16 03:24:08;;;;;;;14.25;10.43;;;;;;;19.43;63.76;102026.28;5049223;28;20044;-48
2023/06/16 03:26:35;;;;;;;15.40;10.18;;;;;;;19.45;63.64;102029.81;5049052;28;20040;-48
2023/06/16 03:29:00;;;;;;;14.07;10.40;;;;;;;19.47;63.61;102032.47;5031025;28;20503;-45
2023/06/16 03:31:26;;;;;;;13.93;10.77;;;;;;;19.46;63.60;102030.72;5049843;28;20067;-48
2023/06/16 03:33:51;;;;;;;14.75;10.07;;;;;;;19.49;63.45;102034.22;5048742;28;20450;-47
2023/06/16 03:36:18;;;;;;;12.45;9.75;;;;;;;19.48;63.29;102032.47;5048492;28;20116;-47
2023/06/16 03:38:43;;;;;;;13.43;10.07;;;;;;;19.50;63.35;102027.16;5049157;28;20250;-45
2023/06/16 03:41:08;;;;;;;12.70;9.90;;;;;;;19.50;63.05;102035.09;5048376;28;20624;-50
2023/06/16 03:43:34;;;;;;;13.65;9.93;;;;;;;19.50;62.79;102033.34;5049089;28;20399;-46
2023/06/16 03:45:59;;;;;;;12.45;9.98;;;;;;;19.54;62.50;102042.13;5061587;23;20061;-43
2023/06/16 03:48:24;;;;;;;13.27;9.52;;;;;;;19.59;62.31;102038.56;5009138;28;20554;-47
2023/06/16 03:50:50;;;;;;;11.48;9.20;;;;;;;19.64;61.94;102035.91;5009292;28;20034;-46
2023/06/16 03:53:15;;;;;;;14.52;9.80;;;;;;;19.63;61.68;102042.09;5010413;28;20113;-45
2023/06/16 03:55:40;;;;;;;12.80;9.38;;;;;;;19.67;61.55;102041.19;5012701;28;20041;-51
2023/06/16 03:58:07;;;;;;;15.13;9.73;;;;;;;19.69;61.56;102040.28;5013133;28;20139;-47
2023/06/16 04:00:32;;;;;;;11.15;9.30;;;;;;;19.73;61.22;102042.03;5013294;28;20022;-44
2023/06/16 04:02:58;;;;;;;12.75;9.25;;;;;;;19.77;61.07;102043.75;5012966;28;20515;-42
2023/06/16 04:05:23;;;;;;;10.27;8.90;;;;;;;19.80;60.89;102045.50;5013649;28;20026;-46
2023/06/16 04:07:49;;;;;;;11.82;8.75;;;;;;;19.84;60.60;102037.53;5013735;28;20061;-46
2023/06/16 04:10:14;;;;;;;13.10;9.13;;;;;;;19.93;60.64;102041.91;5014339;28;20253;-44
2023/06/16 04:12:40;;;;;;;12.65;9.57;;;;;;;19.97;60.80;102041.00;4996246;28;20044;-45
2023/06/16 04:15:05;;;;;;;12.30;9.45;;;;;;;19.85;61.19;102046.38;5012600;28;20049;-44
2023/06/16 04:17:31;;;;;;;13.55;9.23;;;;;;;19.88;61.54;102041.06;5013129;28;20034;-44
2023/06/16 04:19:57;;;;;;;13.05;8.65;;;;;;;20.00;61.40;102040.09;5013092;28;20157;-46
2023/06/16 04:22:22;;;;;;;13.43;8.63;;;;;;;20.11;60.79;102041.78;5013190;28;20025;-46
2023/06/16 04:24:47;;;;;;;12.38;8.40;;;;;;;20.29;60.42;102042.53;5012025;28;20052;-53
2023/06/16 04:27:12;;;;;;;11.60;8.90;;;;;;;20.32;60.56;102039.84;5012727;28;20037;-44
2023/06/16 04:29:41;;;;;;;11.27;8.95;;;;;;;20.35;60.17;102039.84;5013001;28;20044;-49
2023/06/16 04:32:10;;;;;;;10.98;7.97;;;;;;;20.41;59.84;102035.38;5012427;28;20132;-49
2023/06/16 04:34:36;;;;;;;12.50;8.98;;;;;;;20.53;59.42;102035.28;5012844;28;20443;-46
2023/06/16 04:37:02;;;;;;;13.63;8.73;;;;;;;20.50;59.68;102042.34;5012015;28;20038;-46
2023/06/16 04:39:27;;;;;;;11.43;8.90;;;;;;;20.51;59.70;102041.47;4995451;28;20037;-46
2023/06/16 04:41:53;;;;;;;11.82;9.07;;;;;;;20.59;59.89;102052.88;5012642;28;20444;-50
2023/06/16 04:44:18;;;;;;;11.10;8.70;;;;;;;20.69;59.46;102059.84;4995814;28;20084;-44
2023/06/16 04:46:43;;;;;;;14.20;8.80;;;;;;;20.87;59.11;102058.78;5012210;28;20041;-45
2023/06/16 04:49:09;;;;;;;9.93;8.30;;;;;;;21.02;58.41;102048.03;5012041;28;20037;-44
2023/06/16 04:51:34;;;;;;;11.20;8.88;;;;;;;21.13;57.94;102054.09;5012336;28;20442;-46
2023/06/16 04:54:00;;;;;;;13.68;8.18;;;;;;;21.33;57.10;102056.53;5011814;28;20045;-47
2023/06/16 04:56:25;;;;;;;12.88;8.48;;;;;;;21.48;55.76;102060.75;5011852;28;20034;-48
2023/06/16 04:58:50;;;;;;;11.27;8.43;;;;;;;21.61;54.97;102054.41;5011693;28;20396;-47
2023/06/16 05:01:16;;;;;;;13.00;8.00;;;;;;;21.72;54.41;102052.47;5012361;28;20428;-50
2023/06/16 05:03:41;;;;;;;11.05;8.13;;;;;;;21.78;53.32;102047.06;5012491;28;20511;-47
2023/06/16 05:06:06;;;;;;;11.20;8.15;;;;;;;21.76;53.41;102054.19;5010313;28;20038;-48
2023/06/16 05:08:32;;;;;;;17.13;11.40;;;;;;;21.82;53.69;102052.34;4994857;28;20030;-45
2023/06/16 05:10:58;;;;;;;11.25;8.35;;;;;;;21.93;53.17;102048.63;5011952;28;20033;-46
2023/06/16 05:13:23;;;;;;;11.45;7.90;;;;;;;21.94;53.13;102053.06;5011622;28;20515;-48
2023/06/16 05:15:48;;;;;;;11.68;7.80;;;;;;;22.54;51.19;102048.56;5011157;28;20034;-51
2023/06/16 05:18:13;;;;;;;12.07;7.00;;;;;;;23.76;46.65;102050.59;5011787;28;20029;-46
2023/06/16 05:20:39;;;;;;;9.98;6.28;;;;;;;25.26;42.53;102047.66;5011785;28;20030;-45
2023/06/16 05:23:05;;;;;;;10.60;6.70;;;;;;;26.03;40.69;102037.28;4994136;28;20066;-45
2023/06/16 05:25:30;;;;;;;11.48;5.80;;;;;;;27.29;37.48;102037.34;5011627;28;20034;-44
2023/06/16 05:27:56;;;;;;;8.23;6.00;;;;;;;28.10;36.24;102043.09;5011355;28;20044;-48
2023/06/16 05:30:21;;;;;;;9.35;5.93;;;;;;;28.01;35.55;102044.34;5011847;28;20378;-48
2023/06/16 05:32:47;;;;;;;9.13;6.03;;;;;;;28.79;33.44;102046.47;5012068;28;20135;-46
2023/06/16 05:35:12;;;;;;;8.23;5.28;;;;;;;29.75;30.97;102037.56;5010835;28;20068;-45
2023/06/16 05:37:37;;;;;;;12.00;5.63;;;;;;;29.27;31.23;102043.41;5011662;28;20381;-48
2023/06/16 05:40:03;;;;;;;8.00;4.97;;;;;;;30.68;29.76;102039.13;5011230;28;20133;-43
2023/06/16 05:42:28;;;;;;;11.40;5.50;;;;;;;30.21;30.05;102045.13;5011442;28;20034;-49
2023/06/16 05:44:54;;;;;;;8.88;5.05;;;;;;;30.79;28.03;102044.84;5011297;28;20117;-47
2023/06/16 05:47:19;;;;;;;9.98;5.40;;;;;;;31.22;28.05;102045.28;5011904;28;20310;-48
2023/06/16 05:49:45;;;;;;;8.20;5.22;;;;;;;31.49;27.83;102041.06;5011490;28;20037;-47
2023/06/16 05:52:10;;;;;;;8.40;5.00;;;;;;;31.29;27.82;102041.31;5010989;28;20056;-52
2023/06/16 05:54:35;;;;;;;8.57;4.72;;;;;;;32.25;26.38;102042.13;5011355;28;20034;-48
2023/06/16 05:57:01;;;;;;;9.13;5.30;;;;;;;30.58;28.98;102046.84;5010210;28;20045;-48
2023/06/16 05:59:27;;;;;;;10.52;4.97;;;;;;;31.54;27.93;102041.66;5011313;28;20060;-46
2023/06/16 06:01:53;;;;;;;7.97;4.85;;;;;;;31.66;26.75;102045.53;5010572;28;20053;-47
2023/06/16 06:04:36;;;;;;;7.60;5.20;;;;;;;30.99;28.42;102054.56;5011015;28;20073;-44
2023/06/16 06:07:02;;;;;;;9.25;4.28;;;;;;;32.34;25.99;102046.09;5010279;28;20389;-46
2023/06/16 06:09:27;;;;;;;7.95;4.78;;;;;;;32.60;25.59;102058.91;5010735;28;20065;-48
2023/06/16 06:11:53;;;;;;;8.52;5.10;;;;;;;32.03;25.95;102060.47;5010366;28;20121;-48
2023/06/16 06:14:18;;;;;;;9.25;5.38;;;;;;;32.42;24.82;102058.19;4993406;28;20025;-45
2023/06/16 06:16:44;;;;;;;5.72;4.78;;;;;;;31.78;27.10;102064.56;5010255;28;20500;-45
2023/06/16 06:19:10;;;;;;;5.43;4.35;;;;;;;32.72;25.72;102060.91;5010179;28;20105;-50
2023/06/16 06:21:36;;;;;;;9.30;4.32;;;;;;;33.35;24.26;102064.19;5010730;28;20083;-45
2023/06/16 06:24:02;;;;;;;6.25;4.60;;;;;;;32.66;25.35;102069.38;5010018;28;20370;-46
2023/06/16 06:26:27;;;;;;;6.50;4.80;;;;;;;32.72;26.05;102073.53;5009980;28;20029;-47
2023/06/16 06:28:52;;;;;;;6.45;4.65;;;;;;;32.23;26.37;102065.63;5010134;28;20040;-46
2023/06/16 06:31:18;;;;;;;10.25;4.78;;;;;;;32.40;26.61;102067.31;5011069;28;20389;-46
2023/06/16 06:33:43;;;;;;;10.30;4.82;;;;;;;32.99;25.87;102063.75;5011096;28;20108;-54
2023/06/16 06:36:09;;;;;;;7.25;4.22;;;;;;;33.80;23.38;102065.78;5010615;28;20164;-45
2023/06/16 06:38:35;;;;;;;6.43;4.40;;;;;;;33.23;24.22;102062.25;5010800;28;20053;-45
2023/06/16 06:41:00;;;;;;;16.38;4.72;;;;;;;33.39;24.18;102068.41;5010073;28;20536;-48
2023/06/16 06:43:26;;;;;;;8.48;4.90;;;;;;;34.02;23.22;102069.78;5010714;28;20036;-47
2023/06/16 06:45:51;;;;;;;7.40;4.28;;;;;;;33.90;23.70;102073.31;5009513;28;20156;-48
2023/06/16 06:48:17;;;;;;;6.20;3.88;;;;;;;33.95;23.57;102063.91;5010534;28;20052;-43
2023/06/16 06:50:43;;;;;;;8.45;4.07;;;;;;;33.76;22.89;102074.19;5008147;28;20041;-46
2023/06/16 06:53:09;;;;;;;8.77;4.30;;;;;;;34.39;22.00;102069.09;5010000;28;20480;-46
2023/06/16 06:55:34;;;;;;;6.47;3.97;;;;;;;33.85;23.29;102072.75;5009742;28;20026;-46
2023/06/16 06:58:00;;;;;;;7.65;4.00;;;;;;;33.82;23.16;102076.50;5011542;28;20129;-47
2023/06/16 07:00:25;;;;;;;6.32;3.78;;;;;;;34.18;22.52;102067.78;5010962;28;20053;-53
2023/06/16 07:02:51;;;;;;;5.18;3.78;;;;;;;34.71;21.65;102069.59;5009708;28;20499;-45
2023/06/16 07:05:16;;;;;;;5.55;3.90;;;;;;;34.89;21.86;102078.28;5009406;28;20125;-44
2023/06/16 07:07:41;;;;;;;6.13;3.80;;;;;;;34.19;22.39;102070.41;5010080;28;20037;-47
2023/06/16 07:10:07;;;;;;;8.23;3.83;;;;;;;33.57;22.96;102081.72;5009155;28;21577;-49
2023/06/16 07:12:32;;;;;;;7.15;3.80;;;;;;;33.95;23.25;102072.03;5008800;28;20037;-46
2023/06/16 07:14:58;;;;;;;8.35;4.10;;;;;;;34.59;21.82;102073.13;5008619;28;20030;-50
2023/06/16 07:17:23;;;;;;;6.72;3.75;;;;;;;34.82;21.31;102068.88;5009719;28;20037;-47
2023/06/16 07:19:48;;;;;;;6.57;3.55;;;;;;;34.13;22.15;102068.09;5009367;28;20022;-48
2023/06/16 07:22:14;;;;;;;8.45;3.80;;;;;;;34.17;22.00;102068.75;5009777;28;20088;-50
2023/06/16 07:24:39;;;;;;;7.15;3.83;;;;;;;34.57;21.10;102067.84;5009808;28;20459;-46
2023/06/16 07:27:05;;;;;;;6.07;3.30;;;;;;;35.63;20.85;102072.06;5008634;28;20400;-48
2023/06/16 07:29:31;;;;;;;9.85;3.85;;;;;;;35.96;19.20;102068.75;5008945;28;20033;-55
2023/06/16 07:31:56;;;;;;;7.18;3.70;;;;;;;36.21;18.82;102071.41;5009214;28;20511;-47
2023/06/16 07:34:21;;;;;;;5.28;3.70;;;;;;;34.96;19.94;102079.59;5009584;28;20054;-51
2023/06/16 07:36:46;;;;;;;6.80;3.63;;;;;;;35.20;20.29;102075.19;5009303;28;20034;-46
2023/06/16 07:39:12;;;;;;;8.10;3.80;;;;;;;33.48;21.87;102075.09;5008782;28;20709;-46
2023/06/16 07:41:38;;;;;;;6.15;3.50;;;;;;;34.68;21.69;102069.78;5009561;28;20576;-49
2023/06/16 07:44:04;;;;;;;7.75;3.65;;;;;;;34.80;20.94;102076.22;5007837;28;20038;-53
2023/06/16 07:46:30;;;;;;;6.22;3.45;;;;;;;35.93;18.81;102074.41;5008862;28;20612;-50
2023/06/16 07:48:55;;;;;;;7.20;3.80;;;;;;;35.79;19.35;102079.03;5008891;28;20038;-48
2023/06/16 07:51:21;;;;;;;6.80;3.85;;;;;;;34.72;20.43;102075.88;5009669;28;20041;-50
2023/06/16 07:53:48;;;;;;;5.88;3.40;;;;;;;34.43;20.39;102083.28;5009346;28;20034;-47
2023/06/16 07:56:13;;;;;;;5.18;3.70;;;;;;;35.11;19.87;102080.38;5008632;28;20116;-47
2023/06/16 07:58:38;;;;;;;5.22;3.78;;;;;;;34.56;20.30;102071.50;5009622;28;20144;-47
2023/06/16 08:01:04;;;;;;;5.20;3.50;;;;;;;33.99;20.51;102076.25;5008785;28;20037;-44
2023/06/16 08:03:30;;;;;;;6.07;3.45;;;;;;;34.54;20.47;102070.75;5009345;28;20097;-44
2023/06/16 08:05:57;;;;;;;6.03;3.58;;;;;;;34.94;20.15;102077.03;5008126;28;20034;-46
2023/06/16 08:08:23;;;;;;;3.85;3.42;;;;;;;35.43;18.20;102072.69;5009254;28;20041;-46
2023/06/16 08:10:48;;;;;;;7.50;3.40;;;;;;;35.89;17.39;102062.91;5008805;28;20405;-53
2023/06/16 08:13:14;;;;;;;5.03;3.47;;;;;;;34.38;18.64;102066.47;5007242;28;20033;-51
2023/06/16 08:15:39;;;;;;;7.03;3.75;;;;;;;34.55;19.11;102060.78;5008441;28;20649;-51
2023/06/16 08:18:05;;;;;;;6.72;3.40;;;;;;;35.59;19.03;102065.16;5008562;28;20044;-48
2023/06/16 08:20:32;;;;;;;4.78;3.05;;;;;;;36.66;17.02;102066.16;5009198;28;20050;-49
2023/06/16 08:22:57;;;;;;;6.43;3.20;;;;;;;36.02;17.20;102054.72;5007412;28;20113;-46
2023/06/16 08:25:23;;;;;;;6.60;3.20;;;;;;;34.56;18.55;102060.69;5008831;28;20475;-45
2023/06/16 08:27:48;;;;;;;7.30;3.28;;;;;;;36.31;17.32;102064.28;4991030;28;20118;-47
2023/06/16 08:30:17;;;;;;;6.32;3.20;;;;;;;36.86;15.71;102063.59;5007927;28;20030;-49
2023/06/16 08:32:42;;;;;;;5.70;3.30;;;;;;;36.17;16.89;102064.44;5008469;28;20041;-52
2023/06/16 08:35:08;;;;;;;3.33;3.00;;;;;;;35.63;18.21;102070.22;5007881;28;20038;-49
2023/06/16 08:37:33;;;;;;;5.50;3.17;;;;;;;36.43;16.21;102055.19;5009223;28;20030;-46
2023/06/16 08:39:59;;;;;;;5.28;3.50;;;;;;;35.52;17.87;102055.72;5008893;28;20136;-46
2023/06/16 08:42:25;;;;;;;4.45;3.47;;;;;;;33.89;19.75;102055.31;5012363;28;20034;-50
2023/06/16 08:44:53;;;;;;;5.60;3.60;;;;;;;32.23;20.39;102055.69;5011479;28;20034;-51
2023/06/16 08:47:18;;;;;;;5.82;3.60;;;;;;;32.39;20.52;102058.34;5012332;28;20044;-49
2023/06/16 08:49:44;;;;;;;6.88;3.67;;;;;;;32.26;20.54;102059.19;5011071;28;20042;-47
2023/06/16 08:52:12;;;;;;;7.47;3.90;;;;;;;32.08;21.47;102061.94;5011836;28;20029;-49
2023/06/16 08:54:46;;;;;;;6.15;3.90;;;;;;;31.49;21.54;102057.22;5012548;28;20060;-47
2023/06/16 08:57:13;;;;;;;5.28;3.45;;;;;;;31.36;20.98;102053.47;5011868;28;20042;-50
2023/06/16 08:59:41;;;;;;;5.10;3.85;;;;;;;31.39;21.42;102054.19;5012050;28;20034;-46
2023/06/16 09:02:07;;;;;;;6.43;3.70;;;;;;;30.75;22.34;102055.84;5011733;28;20150;-50
2023/06/16 09:04:33;;;;;;;7.30;4.10;;;;;;;30.63;21.78;102052.84;5012179;28;20077;-46
2023/06/16 09:06:59;;;;;;;5.28;4.15;;;;;;;30.66;22.06;102048.25;5011506;28;20069;-49
2023/06/16 09:09:25;;;;;;;6.03;4.05;;;;;;;29.96;23.04;102059.84;5011956;28;20117;-47
2023/06/16 09:12:11;;;;;;;6.70;4.22;;;;;;;30.06;22.67;102053.97;5012060;28;20030;-46
2023/06/16 09:14:38;;;;;;;5.85;4.10;;;;;;;30.00;23.27;102058.78;5013009;28;20454;-46
2023/06/16 09:17:05;;;;;;;8.55;4.00;;;;;;;30.06;24.46;102064.72;5011914;28;20030;-46
2023/06/16 09:19:34;;;;;;;5.10;3.70;;;;;;;30.47;22.70;102057.25;5012171;28;20073;-53
2023/06/16 09:22:00;;;;;;;6.75;3.70;;;;;;;30.79;22.62;102060.13;5012054;28;20030;-51
2023/06/16 09:24:27;;;;;;;6.65;3.90;;;;;;;31.00;22.17;102054.47;5013507;28;20088;-46
2023/06/16 09:26:57;;;;;;;4.65;3.70;;;;;;;31.23;22.63;102055.13;4995570;28;20038;-46
2023/06/16 09:29:24;;;;;;;8.55;4.13;;;;;;;29.99;23.17;102057.03;5015164;28;20054;-50
2023/06/16 09:31:50;;;;;;;6.10;3.70;;;;;;;30.62;22.44;102052.91;5014170;28;20034;-45
2023/06/16 09:34:16;;;;;;;9.52;3.85;;;;;;;29.14;23.14;102056.50;5013453;28;20030;-44
2023/06/16 09:36:41;;;;;;;5.75;3.80;;;;;;;29.89;23.14;102059.25;5012905;28;20033;-47
2023/06/16 09:39:20;;;;;;;6.35;4.05;;;;;;;29.81;22.67;102053.38;5013112;28;20041;-50
2023/06/16 09:41:45;;;;;;;6.05;4.13;;;;;;;29.83;22.56;102056.84;5012837;28;20095;-48
2023/06/16 09:44:11;;;;;;;4.93;4.07;;;;;;;29.84;24.49;102059.47;5012074;28;20034;-52
2023/06/16 09:46:37;;;;;;;7.20;3.80;;;;;;;29.94;22.72;102061.75;5026821;23;20049;-82
2023/06/16 09:49:02;;;;;;;6.68;4.00;;;;;;;29.96;22.17;102062.53;5042421;28;20033;-83
2023/06/16 09:51:27;;;;;;;5.88;3.80;;;;;;;29.53;23.10;102058.31;5038142;28;20009;-78
2023/06/16 10:00:40;;;;;;;8.73;4.45;;;;;;;29.08;23.76;102054.09;5194873;22;20049;-43
2023/06/16 10:03:08;;;;;;;8.35;4.10;;;;;;;29.52;24.85;102054.75;5008600;28;20402;-50
2023/06/16 10:05:35;;;;;;;9.80;4.50;;;;;;;29.68;23.50;102053.09;5010450;28;20141;-50
2023/06/16 10:08:04;;;;;;;8.95;3.92;;;;;;;29.85;24.83;102044.22;5010328;28;20068;-45
2023/06/16 10:10:32;;;;;;;9.40;4.53;;;;;;;30.06;23.97;102042.34;5010976;28;20029;-43
2023/06/16 10:13:02;;;;;;;6.70;4.15;;;;;;;29.75;24.19;102049.19;5058756;22;20259;-50
2023/06/16 10:15:30;;;;;;;7.25;4.28;;;;;;;29.68;24.43;102038.78;5050128;28;20039;-50
2023/06/16 10:18:02;;;;;;;6.53;4.28;;;;;;;30.25;22.76;102040.47;5048251;28;20470;-44
2023/06/16 10:20:28;;;;;;;5.55;4.13;;;;;;;28.79;24.11;102043.81;5050728;28;20068;-49
2023/06/16 10:22:54;;;;;;;8.15;3.70;;;;;;;29.38;22.97;102046.47;5050077;28;20065;-47
2023/06/16 10:25:21;;;;;;;5.60;4.13;;;;;;;29.38;23.22;102039.31;5049741;28;20041;-49
2023/06/16 10:27:48;;;;;;;6.13;4.10;;;;;;;28.97;23.30;102043.81;5050313;28;20111;-50
2023/06/16 10:30:19;;;;;;;8.88;3.83;;;;;;;28.76;22.84;102041.22;5049648;28;20040;-47
2023/06/16 10:32:48;;;;;;;5.45;3.80;;;;;;;28.88;21.59;102038.00;5050328;28;20044;-46
2023/06/16 10:35:14;;;;;;;6.13;4.00;;;;;;;29.61;21.37;102029.28;5049132;28;20032;-49
2023/06/16 10:37:40;;;;;;;7.05;3.60;;;;;;;29.64;20.21;102034.50;5050385;28;20116;-46
2023/06/16 10:40:08;;;;;;;6.97;3.85;;;;;;;29.09;20.49;102034.38;5049586;28;20110;-46
2023/06/16 10:42:35;;;;;;;6.30;3.97;;;;;;;29.17;21.12;102032.19;5049855;28;20380;-53
2023/06/16 10:45:29;;;;;;;5.20;3.60;;;;;;;30.08;20.99;102024.28;5048923;28;20083;-50
2023/06/16 10:47:58;;;;;;;5.25;3.50;;;;;;;29.72;19.51;102030.50;5049003;28;20029;-49
2023/06/16 10:50:39;;;;;;;9.98;3.90;;;;;;;30.09;20.05;102026.91;5049747;28;20036;-52
2023/06/16 10:53:16;;;;;;;6.53;3.45;;;;;;;30.47;19.83;102024.09;5049072;28;20037;-45
2023/06/16 10:55:44;;;;;;;5.15;3.70;;;;;;;30.40;19.42;102020.84;5049288;28;20033;-47
2023/06/16 10:58:15;;;;;;;7.15;4.00;;;;;;;30.08;19.93;102018.91;5049190;28;20048;-46
2023/06/16 11:01:01;;;;;;;5.90;3.85;;;;;;;30.22;20.33;102016.41;5048054;28;20462;-49
2023/06/16 11:03:37;;;;;;;5.93;4.20;;;;;;;30.39;21.07;102018.22;5048821;28;20029;-51
2023/06/16 11:06:03;;;;;;;7.80;4.15;;;;;;;30.61;20.02;102018.91;5048445;28;20029;-52
2023/06/16 11:08:29;;;;;;;7.43;4.18;;;;;;;30.51;20.00;102018.50;5049583;28;20047;-49
2023/06/16 11:11:03;;;;;;;5.07;3.85;;;;;;;30.25;21.11;102018.94;5049197;28;20048;-44
2023/06/16 11:13:38;;;;;;;5.80;4.18;;;;;;;29.79;21.17;102012.25;5050070;28;20086;-48
2023/06/16 11:16:04;;;;;;;7.22;3.90;;;;;;;29.15;22.02;102020.66;5050020;28;20029;-49
2023/06/16 11:18:31;;;;;;;4.93;3.90;;;;;;;30.14;21.14;102013.22;5051068;28;20033;-44
2023/06/16 11:20:58;;;;;;;6.82;3.97;;;;;;;30.19;20.67;102014.72;5049684;28;20025;-46
2023/06/16 11:23:24;;;;;;;6.75;4.10;;;;;;;30.61;20.58;102019.78;5050120;28;20033;-44
2023/06/16 11:25:50;;;;;;;5.05;4.20;;;;;;;29.92;20.81;102009.88;5049336;28;20136;-47